• Join FlightAware (Why Join?)
  • Login
  • US Flag 
10:09AM EDT


 

Airport Tracker/Info


-or-


 

Live Flight TrackerFlight Track Log ✈ ASQ4577 ✈ 04-Jun-2013 ✈ KIAH - KDFW

Flight Track Log - Related Links

Times and Time Zones

All times are in EDT time to prevent confusion due to time zone crossing. See the ASQ4577 flight status page for this flight to view local times or setup timezone preferences in your user account.

Time Position Orientation Groundspeed Altitude Reporting Facility
EDT Latitude Longitude Course Direction KTS MPH feet Rate Location/Type
02:12PM 29.9578 -95.3464 North 167 192 800  Level Houston Center
02:14PM 29.9886 -95.3861 312° West 253 291 3,800 1,200 Climbing Houston Center
02:15PM 30.2478 -95.3167 North  Level FlightAware Approximate
02:15PM 30.0636 -95.3794 North 288 331 4,000  Level Houston Center
02:16PM 30.3358 -95.3059 North  Level FlightAware Approximate
02:16PM 30.1369 -95.3694 North 260 299 4,200  Level Houston Center
02:17PM 30.4241 -95.3000 North  Level FlightAware Approximate
02:17PM 30.2106 -95.3564 North 265 305 7,100  Level Houston Center
02:18PM 30.5126 -95.3000 North  Level FlightAware Approximate
02:18PM 30.3028 -95.3417 North 277 319 10,000  Level Houston Center
02:19PM 30.3872 -95.3269 North 302 348 11,200 960 Climbing Houston Center
02:20PM 30.4978 -95.3114 North 363 418 12,100 1,200 Climbing Houston Center
02:21PM 30.6042 -95.3047 North 379 436 13,700 1,440 Climbing Houston Center
02:22PM 30.7125 -95.2969 North 386 444 15,100 1,200 Climbing Houston Center
02:23PM 30.8211 -95.2908 North 388 447 16,300 1,020 Climbing Houston Center
02:24PM 30.9319 -95.2825 North 394 453 17,300 960 Climbing Houston Center
02:25PM 31.0439 -95.2756 North 398 458 18,400 1,020 Climbing Houston Center
02:26PM 31.1561 -95.2672 North 399 459 19,500 1,140 Climbing Houston Center
02:27PM 31.2933 -95.2575 North 405 466 20,800 720 Climbing Houston Center
02:28PM 31.4050 -95.2842 348° North 414 476 21,000 60 Climbing Houston Center
02:29PM 31.4897 -95.3803 316° Northwest 422 486 21,000  Level Houston Center
02:30PM 31.5717 -95.4769 315° West 418 481 21,000  Level Houston Center
02:31PM 31.6536 -95.5731 315° West 417 480 21,000  Level Houston Center
02:32PM 31.6869 -95.6164 312° West 418 481 21,000  Level Fort Worth Center
02:33PM 31.7656 -95.7128 314° West 412 474 21,000  Level Fort Worth Center
02:34PM 31.8461 -95.8092 315° West 412 474 21,000  Level Fort Worth Center
02:35PM 31.9244 -95.9031 315° West 412 474 21,000  Level Fort Worth Center
02:36PM 32.0133 -96.0069 315° West 407 468 21,000  Level Fort Worth Center
02:37PM 32.0917 -96.1014 314° West 402 463 21,000 -240 Level Fort Worth Center
02:38PM 32.1700 -96.1936 315° West 402 463 20,600 -960 Descending Fort Worth Center
02:39PM 32.2439 -96.2836 314° West 390 449 19,100 -1,440 Descending Fort Worth Center
02:40PM 32.3069 -96.3589 315° West 366 421 17,700 -1,740 Descending Fort Worth Center
02:41PM 32.3808 -96.4514 313° West 361 415 15,700 -1,980 Descending Fort Worth Center
02:42PM 32.4419 -96.5222 316° Northwest 354 407 13,800 -1,860 Descending Fort Worth Center
02:43PM 32.5114 -96.6053 315° West 329 379 12,000 -1,440 Descending Fort Worth Center
02:44PM 32.5681 -96.6739 314° West 319 367 11,000 -540 Descending Fort Worth Center
02:45PM 32.6356 -96.7547 315° West 319 367 11,000 -120 Level Fort Worth Center
02:45PM 32.6667 -96.7833 322° Northwest 324 373 10,900 -120 Descending Dallas / Fort Worth TRACON
02:46PM 32.7333 -96.8667 314° West 329 379 10,900  Level Dallas / Fort Worth TRACON
02:47PM 32.8000 -96.9500 314° West 332 382 10,900  Level Dallas / Fort Worth TRACON
02:48PM 32.8500 -97.0333 306° West 311 358 10,900 -840 Level Dallas / Fort Worth TRACON
02:49PM 32.9000 -97.1000 312° West 275 316 9,300 -1,680 Descending Dallas / Fort Worth TRACON
02:50PM 32.9228 -97.1411 303° West 306 352 8,400 -1,860 Descending Fort Worth Center
02:51PM 33.0022 -97.1533 353° North 264 304 6,500 -2,100 Descending Fort Worth Center
02:52PM 33.0817 -97.1581 357° North 273 314 4,200 -1,680 Descending Fort Worth Center
02:52PM 33.1167 -97.1167 45° Northeast 245 282 3,900 -480 Descending Dallas / Fort Worth TRACON
02:53PM 33.0833 -97.0667 128° Southeast 204 235 3,500 -600 Descending Dallas / Fort Worth TRACON
02:54PM 33.0333 -97.0500 164° South 169 194 2,800 -720 Descending Dallas / Fort Worth TRACON